AirNav   Air Wisconsin Up To $57,000 Bonus
 
 1609 users online  

24PA Kindelberger Landing Strip
Freedom, Pennsylvania, USA

GOING TO FREEDOM?


FAA INFORMATION EFFECTIVE 30 DECEMBER 2021

Location

FAA Identifier: 24PA
Lat/Long: 40-41-30.2390N 080-10-40.2170W
40-41.503983N 080-10.670283W
40.6917331,-80.1778381
(estimated)
Elevation: 1140 ft. / 347 m (estimated)
Variation: 08W (1985)
From city: 3 miles E of FREEDOM, PA
Time zone: UTC -5 (UTC -4 during Daylight Saving Time)
Zip code: 15042

Airport Operations

Airport use: Private use. Permission required prior to landing
Control tower: no
ARTCC: CLEVELAND CENTER
FSS: ALTOONA FLIGHT SERVICE STATION
Attendance: SAT-SUN DAYLIGHT HOURS
Wind indicator: yes
Segmented circle: no

Airport Communications

WX AWOS-3PT at PJC (7 nm N): 118.45 (724-452-5304)
WX AWOS-3PT at BVI (11 nm NW): 118.35 (724-843-1024)
WX AWOS-3PT at BTP (11 nm NE): 121.450 (724-586-6434)
WX ASOS at PIT (12 nm S): PHONE 412-472-0145
WX AWOS-A at 42PN (16 nm SE): PHONE 412-442-2213

Nearby radio navigation aids

VOR radial/distance  VOR name  Freq  Var
EWCr177/8.1ELLWOOD CITY VOR/DME115.8008W
AGCr355/25.6ALLEGHENY VOR/DME110.0009W
HLGr042/31.5WHEELING VOR/DME112.2007W

 
NDB name  Hdg/Dist  Freq  Var  ID
CASTLE160/22.627209WUCP ..- -.-. .--.

Airport Services

Parking: tiedowns
Airframe service: NONE
Powerplant service: NONE

Runway Information

Runway 9/27

Dimensions: 1515 x 110 ft. / 462 x 34 m
Surface: turf, in poor condition
RUNWAY 9  RUNWAY 27
Traffic pattern: leftleft
Obstructions: 5 ft. fence, 75 ft. right of centerline40 ft. pline, 10 ft. from runway, 110 ft. left of centerline

Airport Ownership and Management from official FAA records

Ownership: Privately-owned
Owner: EMIL KINDELBERGER, JR.
1065 BLANK ROAD
FREEDOM, PA 15042
Phone 724-774-7540

Airport Operational Statistics

Aircraft based on the field: 4
Single engine airplanes: 4
    
Aircraft operations: avg 83/month *
90% local general aviation
10% transient general aviation
* for 12-month period ending 19 April 1985

Additional Remarks

FOR CD CTC PITTSBURGH APCH AT 412-472-5591

Instrument Procedures

There are no published instrument procedures at 24PA.

Some nearby airports with instrument procedures:

KPJC - Zelienople Municipal Airport (7 nm N)
KBVI - Beaver County Airport (11 nm NW)
KBTP - Pittsburgh/Butler Regional Airport (11 nm NE)
KPIT - Pittsburgh International Airport (12 nm S)
02G - Columbiana County Airport (21 nm W)
 
Loc | Ops | Rwys | IFR | FBO | Links
Com | Nav | Svcs | Stats | Notes
Area around 24PA (Kindelberger Landing Strip)
 
Road maps at: MapQuest Bing Google
 
Aerial photo
No photo
 
Sectional chart

 
Airport distance calculator
Flying to Kindelberger Landing Strip? Find the distance to fly.

From to 24PA

Sunrise and sunset
Times for 20-Jan-2022
 Local
(UTC-5)
 Zulu
(UTC)
Morning civil twilight07:1112:11
Sunrise07:4112:41
Sunset17:2222:22
Evening civil twilight17:5222:52

Current date and time
Zulu (UTC)  20-Jan-2022 23:07:48
Local (UTC-5)  20-Jan-2022 18:07:48
 
METAR
KPJC 
7nm N 
202255Z AUTO 34010KT 10SM OVC047 M07/M13 A3042 RMK AO2
KBVI 
11nm NW 
202255Z AUTO 35012G17KT 10SM OVC040 M07/M12 A3040 RMK AO2 T10661125
KBTP 
11nm NE 
202256Z AUTO 34007KT 10SM OVC043 M08/M14 A3039 RMK AO2 SLP317 T10781139 FZRANO
KPIT 
12nm S 
202251Z 35008KT 10SM -SN SCT020 BKN048 M07/M14 A3038 RMK AO2 SNE29B50 SLP314 P0000 T10721139
TAF
KBVI 
11nm NW 
201732Z 2018/2118 34008KT P6SM BKN035 TEMPO 2018/2020 3SM -SHSN BKN025 FM210200 02003KT P6SM SCT035 FM211500 04003KT P6SM SKC
KPIT 
12nm S 
201128Z 2012/2118 35010KT P6SM -SHSN OVC025 FM202200 36008KT P6SM SCT035 FM211000 02003KT P6SM SCT035
NOTAMs
Click for the latest NOTAMs
NOTAMs are issued by the DoD/FAA and will open in a separate window not controlled by AirNav.

 

 
 

Would you like to see your business listed on this page?

 If your business provides an interesting product or service to pilots, flight crews, aircraft, or users of the Kindelberger Landing Strip, you should consider listing it here.  To start the listing process, click on the button below
 
Add a business
 

Other Pages about Kindelberger Landing Strip

Update a link
 
Copyright © AirNav, LLC. All rights reserved. Privacy Policy  Contact